LNI756 WIII-WIEE
Flight info
| Callsign | LNI756 |
|---|---|
| Flight time | 1h 25m |
| Altitude | 34000 |
| Route | GUDBA T6 LEBEG |
| Aircraft | B738/M-SDE2E3FGHIRWXY/LB1 |
Departure
| Time | 2026-05-08 10:45 |
|---|---|
| Airport | Soekarno-Hatta International Airport (WIII) |
Arrival
| Time | 2026-05-08 12:11 |
|---|---|
| Airport | Minangkabau International Airport (WIEE) |
| Time | Latitude | Longitude | Altitude | Speed | Heading |
|---|---|---|---|---|---|
| 2026-05-08 10:09 | -6.12871 | 106.66026 | 47 ft | 0 kts | 253° |
| 2026-05-08 10:27 | -6.12870 | 106.66028 | 47 ft | 1 kts | 252° |
| 2026-05-08 10:27 | -6.12862 | 106.66039 | 47 ft | 1 kts | 240° |
| 2026-05-08 10:27 | -6.12859 | 106.66052 | 47 ft | 2 kts | 258° |
| 2026-05-08 10:28 | -6.12854 | 106.66066 | 47 ft | 0 kts | 250° |
| 2026-05-08 10:28 | -6.12851 | 106.66076 | 47 ft | 2 kts | 238° |
| 2026-05-08 10:28 | -6.12840 | 106.66087 | 47 ft | 2 kts | 213° |
| 2026-05-08 10:28 | -6.12827 | 106.66093 | 47 ft | 2 kts | 190° |
| 2026-05-08 10:29 | -6.12813 | 106.66093 | 47 ft | 2 kts | 168° |
| 2026-05-08 10:29 | -6.12805 | 106.66090 | 47 ft | 1 kts | 153° |
| 2026-05-08 10:29 | -6.12801 | 106.66089 | 47 ft | 0 kts | 156° |
| 2026-05-08 10:36 | -6.12804 | 106.66090 | 47 ft | 1 kts | 156° |
| 2026-05-08 10:37 | -6.12826 | 106.66099 | 47 ft | 5 kts | 159° |
| 2026-05-08 10:37 | -6.12865 | 106.66114 | 47 ft | 4 kts | 159° |
| 2026-05-08 10:37 | -6.12906 | 106.66129 | 47 ft | 8 kts | 158° |
| 2026-05-08 10:37 | -6.12975 | 106.66157 | 47 ft | 10 kts | 158° |
| 2026-05-08 10:38 | -6.13040 | 106.66183 | 47 ft | 9 kts | 159° |
| 2026-05-08 10:38 | -6.13097 | 106.66205 | 47 ft | 8 kts | 159° |
| 2026-05-08 10:38 | -6.13148 | 106.66225 | 47 ft | 8 kts | 158° |
| 2026-05-08 10:38 | -6.13209 | 106.66250 | 47 ft | 9 kts | 158° |
| 2026-05-08 10:39 | -6.13265 | 106.66270 | 47 ft | 7 kts | 171° |
| 2026-05-08 10:39 | -6.13314 | 106.66238 | 47 ft | 10 kts | 242° |
| 2026-05-08 10:39 | -6.13348 | 106.66155 | 47 ft | 14 kts | 249° |
| 2026-05-08 10:39 | -6.13391 | 106.66046 | 47 ft | 18 kts | 248° |
| 2026-05-08 10:40 | -6.13441 | 106.65914 | 47 ft | 22 kts | 249° |
| 2026-05-08 10:40 | -6.13504 | 106.65758 | 47 ft | 25 kts | 249° |
| 2026-05-08 10:40 | -6.13572 | 106.65586 | 47 ft | 26 kts | 248° |
| 2026-05-08 10:40 | -6.13639 | 106.65422 | 47 ft | 24 kts | 248° |
| 2026-05-08 10:41 | -6.13701 | 106.65265 | 47 ft | 23 kts | 248° |
| 2026-05-08 10:41 | -6.13759 | 106.65121 | 47 ft | 21 kts | 248° |
| 2026-05-08 10:41 | -6.13814 | 106.64986 | 47 ft | 20 kts | 249° |
| 2026-05-08 10:41 | -6.13864 | 106.64858 | 47 ft | 18 kts | 248° |
| 2026-05-08 10:42 | -6.13911 | 106.64741 | 47 ft | 17 kts | 249° |
| 2026-05-08 10:42 | -6.13955 | 106.64632 | 47 ft | 16 kts | 248° |
| 2026-05-08 10:42 | -6.13994 | 106.64532 | 47 ft | 14 kts | 248° |
| 2026-05-08 10:42 | -6.14031 | 106.64439 | 47 ft | 15 kts | 249° |
| 2026-05-08 10:43 | -6.14070 | 106.64344 | 47 ft | 12 kts | 246° |
| 2026-05-08 10:43 | -6.14106 | 106.64300 | 47 ft | 7 kts | 207° |
| 2026-05-08 10:43 | -6.14173 | 106.64308 | 47 ft | 12 kts | 149° |
| 2026-05-08 10:43 | -6.14218 | 106.64362 | 47 ft | 8 kts | 142° |
| 2026-05-08 10:44 | -6.14242 | 106.64389 | 47 ft | 4 kts | 92° |
| 2026-05-08 10:44 | -6.14223 | 106.64442 | 47 ft | 15 kts | 67° |
| 2026-05-08 10:44 | -6.14150 | 106.64622 | 47 ft | 54 kts | 68° |
| 2026-05-08 10:44 | -6.13905 | 106.65240 | 47 ft | 133 kts | 68° |
| 2026-05-08 10:45 | -6.13478 | 106.66309 | 140 ft | 189 kts | 66° |
| 2026-05-08 10:45 | -6.12989 | 106.67472 | 1213 ft | 179 kts | 66° |
| 2026-05-08 10:45 | -6.12538 | 106.68617 | 2072 ft | 180 kts | 68° |
| 2026-05-08 10:45 | -6.12067 | 106.69828 | 2615 ft | 195 kts | 67° |
| 2026-05-08 10:46 | -6.11553 | 106.71131 | 3173 ft | 209 kts | 69° |
| 2026-05-08 10:46 | -6.11245 | 106.72586 | 3741 ft | 223 kts | 90° |
| 2026-05-08 10:46 | -6.11721 | 106.74102 | 4323 ft | 239 kts | 122° |
| 2026-05-08 10:46 | -6.12872 | 106.75280 | 5148 ft | 244 kts | 141° |
| 2026-05-08 10:47 | -6.14334 | 106.76140 | 6094 ft | 245 kts | 157° |
| 2026-05-08 10:47 | -6.16002 | 106.76500 | 6892 ft | 252 kts | 180° |
| 2026-05-08 10:47 | -6.17694 | 106.76056 | 7665 ft | 259 kts | 208° |
| 2026-05-08 10:47 | -6.19105 | 106.74947 | 8473 ft | 262 kts | 223° |
| 2026-05-08 10:48 | -6.20175 | 106.73450 | 9206 ft | 267 kts | 251° |
| 2026-05-08 10:48 | -6.20429 | 106.71641 | 9959 ft | 268 kts | 272° |
| 2026-05-08 10:48 | -6.20307 | 106.69758 | 10678 ft | 272 kts | 271° |
| 2026-05-08 10:48 | -6.20414 | 106.67856 | 11278 ft | 280 kts | 261° |
| 2026-05-08 10:49 | -6.20805 | 106.65913 | 11748 ft | 294 kts | 256° |
| 2026-05-08 10:49 | -6.21304 | 106.63874 | 12308 ft | 303 kts | 256° |
| 2026-05-08 10:49 | -6.21790 | 106.61828 | 12992 ft | 307 kts | 257° |
| 2026-05-08 10:49 | -6.22258 | 106.59716 | 13661 ft | 312 kts | 257° |
| 2026-05-08 10:50 | -6.22707 | 106.57588 | 14329 ft | 315 kts | 258° |
| 2026-05-08 10:50 | -6.23104 | 106.55403 | 15011 ft | 319 kts | 263° |
| 2026-05-08 10:50 | -6.23059 | 106.53191 | 15616 ft | 322 kts | 282° |
| 2026-05-08 10:50 | -6.22208 | 106.51113 | 16067 ft | 331 kts | 304° |
| 2026-05-08 10:51 | -6.20698 | 106.49286 | 16385 ft | 344 kts | 314° |
| 2026-05-08 10:51 | -6.19027 | 106.47495 | 16684 ft | 359 kts | 314° |
| 2026-05-08 10:51 | -6.17269 | 106.45615 | 16960 ft | 374 kts | 314° |
| 2026-05-08 10:51 | -6.15481 | 106.43681 | 17228 ft | 388 kts | 314° |
| 2026-05-08 10:52 | -6.13608 | 106.41631 | 17532 ft | 400 kts | 313° |
| 2026-05-08 10:52 | -6.11705 | 106.39532 | 18022 ft | 406 kts | 313° |
| 2026-05-08 10:52 | -6.09812 | 106.37419 | 18548 ft | 410 kts | 311° |
| 2026-05-08 10:52 | -6.08014 | 106.35175 | 19080 ft | 414 kts | 307° |
| 2026-05-08 10:53 | -6.06364 | 106.32815 | 19654 ft | 416 kts | 304° |
| 2026-05-08 10:53 | -6.04777 | 106.30377 | 20243 ft | 418 kts | 303° |
| 2026-05-08 10:53 | -6.03214 | 106.27910 | 20730 ft | 421 kts | 303° |
| 2026-05-08 10:53 | -6.01640 | 106.25415 | 21190 ft | 425 kts | 303° |
| 2026-05-08 10:54 | -6.00028 | 106.22875 | 21697 ft | 427 kts | 303° |
| 2026-05-08 10:54 | -5.98435 | 106.20380 | 22178 ft | 430 kts | 303° |
| 2026-05-08 10:54 | -5.96812 | 106.17854 | 22658 ft | 432 kts | 303° |
| 2026-05-08 10:54 | -5.95163 | 106.15298 | 23130 ft | 435 kts | 303° |
| 2026-05-08 10:55 | -5.93501 | 106.12730 | 23575 ft | 438 kts | 303° |
| 2026-05-08 10:55 | -5.91851 | 106.10186 | 24016 ft | 441 kts | 303° |
| 2026-05-08 10:55 | -5.90162 | 106.07584 | 24488 ft | 443 kts | 303° |
| 2026-05-08 10:55 | -5.88478 | 106.04991 | 24928 ft | 445 kts | 303° |
| 2026-05-08 10:56 | -5.86791 | 106.02395 | 25331 ft | 448 kts | 304° |
| 2026-05-08 10:56 | -5.85074 | 105.99754 | 25782 ft | 450 kts | 304° |
| 2026-05-08 10:56 | -5.83359 | 105.97116 | 26146 ft | 453 kts | 304° |
| 2026-05-08 10:56 | -5.81638 | 105.94469 | 26483 ft | 457 kts | 304° |
| 2026-05-08 10:57 | -5.79879 | 105.91764 | 26874 ft | 460 kts | 304° |
| 2026-05-08 10:57 | -5.78130 | 105.89074 | 27242 ft | 463 kts | 304° |
| 2026-05-08 10:57 | -5.74600 | 105.83649 | 27945 ft | 469 kts | 304° |
| 2026-05-08 10:58 | -5.72812 | 105.80901 | 28327 ft | 470 kts | 304° |
| 2026-05-08 10:58 | -5.71031 | 105.78165 | 28711 ft | 472 kts | 304° |
| 2026-05-08 10:58 | -5.69226 | 105.75391 | 29104 ft | 474 kts | 304° |
| 2026-05-08 10:58 | -5.67416 | 105.72608 | 29447 ft | 476 kts | 304° |
| 2026-05-08 10:59 | -5.65601 | 105.69818 | 29951 ft | 474 kts | 304° |
| 2026-05-08 10:59 | -5.63805 | 105.67057 | 30535 ft | 471 kts | 304° |
| 2026-05-08 10:59 | -5.62019 | 105.64312 | 31079 ft | 468 kts | 304° |
| 2026-05-08 10:59 | -5.60266 | 105.61620 | 31577 ft | 466 kts | 304° |
| 2026-05-08 11:00 | -5.58491 | 105.58894 | 32009 ft | 465 kts | 304° |
| 2026-05-08 11:00 | -5.56727 | 105.56184 | 32439 ft | 464 kts | 304° |
| 2026-05-08 11:00 | -5.54944 | 105.53502 | 32936 ft | 462 kts | 306° |
| 2026-05-08 11:00 | -5.53092 | 105.50876 | 33483 ft | 459 kts | 307° |
| 2026-05-08 11:01 | -5.51197 | 105.48288 | 33830 ft | 459 kts | 308° |
| 2026-05-08 11:01 | -5.49291 | 105.45722 | 33826 ft | 461 kts | 308° |
| 2026-05-08 11:01 | -5.45468 | 105.40588 | 33824 ft | 455 kts | 308° |
| 2026-05-08 11:02 | -5.39808 | 105.32931 | 33823 ft | 456 kts | 308° |
| 2026-05-08 11:03 | -5.36025 | 105.27779 | 33821 ft | 456 kts | 308° |
| 2026-05-08 11:03 | -5.32270 | 105.22653 | 33825 ft | 456 kts | 308° |
| 2026-05-08 11:04 | -5.28683 | 105.17754 | 33831 ft | 456 kts | 308° |
| 2026-05-08 11:04 | -5.24935 | 105.12633 | 33832 ft | 456 kts | 308° |
| 2026-05-08 11:05 | -5.21177 | 105.07501 | 33834 ft | 457 kts | 308° |
| 2026-05-08 11:05 | -5.17417 | 105.02364 | 33836 ft | 455 kts | 308° |
| 2026-05-08 11:06 | -5.13672 | 104.97251 | 33833 ft | 455 kts | 308° |
| 2026-05-08 11:06 | -5.09917 | 104.92127 | 33841 ft | 456 kts | 308° |
| 2026-05-08 11:07 | -5.06627 | 104.87636 | 33863 ft | 457 kts | 308° |
| 2026-05-08 11:08 | -5.04591 | 104.84857 | 33860 ft | 457 kts | 308° |
| 2026-05-08 11:09 | -5.01778 | 104.81017 | 33863 ft | 457 kts | 308° |
| 2026-05-08 11:10 | -4.98009 | 104.75874 | 33861 ft | 457 kts | 308° |
| 2026-05-08 11:10 | -4.94245 | 104.70740 | 33874 ft | 457 kts | 308° |
| 2026-05-08 11:11 | -4.90463 | 104.65587 | 33889 ft | 457 kts | 308° |
| 2026-05-08 11:11 | -4.86701 | 104.60460 | 33893 ft | 457 kts | 308° |
| 2026-05-08 11:12 | -4.82930 | 104.55319 | 33896 ft | 457 kts | 308° |
| 2026-05-08 11:12 | -4.79175 | 104.50200 | 33889 ft | 457 kts | 308° |
| 2026-05-08 11:13 | -4.75397 | 104.45052 | 33876 ft | 458 kts | 308° |
| 2026-05-08 11:13 | -4.71630 | 104.39915 | 33880 ft | 457 kts | 308° |
| 2026-05-08 11:14 | -4.67857 | 104.34776 | 33887 ft | 458 kts | 308° |
| 2026-05-08 11:14 | -4.64752 | 104.30547 | 33891 ft | 457 kts | 308° |
| 2026-05-08 11:15 | -4.60963 | 104.25388 | 33887 ft | 457 kts | 308° |
| 2026-05-08 11:15 | -4.57210 | 104.20278 | 33888 ft | 457 kts | 308° |
| 2026-05-08 11:16 | -4.53432 | 104.15136 | 33906 ft | 457 kts | 308° |
| 2026-05-08 11:16 | -4.49667 | 104.10014 | 33900 ft | 458 kts | 308° |
| 2026-05-08 11:17 | -4.45887 | 104.04871 | 33894 ft | 458 kts | 308° |
| 2026-05-08 11:17 | -4.42108 | 103.99728 | 33887 ft | 458 kts | 308° |
| 2026-05-08 11:18 | -4.38349 | 103.94614 | 33898 ft | 457 kts | 308° |
| 2026-05-08 11:18 | -4.34563 | 103.89465 | 33904 ft | 457 kts | 308° |
| 2026-05-08 11:19 | -4.30792 | 103.84340 | 33929 ft | 457 kts | 308° |
| 2026-05-08 11:19 | -4.27030 | 103.79227 | 33948 ft | 457 kts | 308° |
| 2026-05-08 11:20 | -4.23236 | 103.74071 | 33971 ft | 458 kts | 308° |
| 2026-05-08 11:20 | -4.19464 | 103.68945 | 33974 ft | 457 kts | 308° |
| 2026-05-08 11:21 | -4.15702 | 103.63834 | 33969 ft | 457 kts | 307° |
| 2026-05-08 11:21 | -4.11922 | 103.58701 | 33974 ft | 458 kts | 308° |
| 2026-05-08 11:22 | -4.08155 | 103.53587 | 33966 ft | 457 kts | 308° |
| 2026-05-08 11:22 | -4.04362 | 103.48436 | 33953 ft | 458 kts | 307° |
| 2026-05-08 11:23 | -4.00580 | 103.43302 | 33947 ft | 458 kts | 308° |
| 2026-05-08 11:23 | -3.96801 | 103.38171 | 33942 ft | 459 kts | 308° |
| 2026-05-08 11:24 | -3.93000 | 103.33012 | 33944 ft | 459 kts | 308° |
| 2026-05-08 11:24 | -3.89217 | 103.27880 | 33945 ft | 458 kts | 308° |
| 2026-05-08 11:25 | -3.85436 | 103.22751 | 33939 ft | 457 kts | 308° |
| 2026-05-08 11:25 | -3.81643 | 103.17606 | 33935 ft | 459 kts | 308° |
| 2026-05-08 11:26 | -3.77875 | 103.12495 | 33936 ft | 459 kts | 308° |
| 2026-05-08 11:26 | -3.74063 | 103.07327 | 33930 ft | 460 kts | 308° |
| 2026-05-08 11:27 | -3.70272 | 103.02187 | 33932 ft | 460 kts | 308° |
| 2026-05-08 11:27 | -3.66466 | 102.97028 | 33931 ft | 459 kts | 308° |
| 2026-05-08 11:28 | -3.62663 | 102.91873 | 33917 ft | 460 kts | 308° |
| 2026-05-08 11:28 | -3.58876 | 102.86742 | 33933 ft | 460 kts | 308° |
| 2026-05-08 11:29 | -3.55074 | 102.81593 | 33949 ft | 460 kts | 308° |
| 2026-05-08 11:29 | -3.51277 | 102.76450 | 33967 ft | 460 kts | 308° |
| 2026-05-08 11:30 | -3.47456 | 102.71275 | 33967 ft | 460 kts | 308° |
| 2026-05-08 11:30 | -3.43657 | 102.66130 | 33969 ft | 460 kts | 308° |
| 2026-05-08 11:31 | -3.39835 | 102.60957 | 33974 ft | 462 kts | 308° |
| 2026-05-08 11:31 | -3.36044 | 102.55823 | 33994 ft | 460 kts | 308° |
| 2026-05-08 11:32 | -3.32234 | 102.50666 | 34028 ft | 460 kts | 308° |
| 2026-05-08 11:32 | -3.28431 | 102.45519 | 34055 ft | 461 kts | 308° |
| 2026-05-08 11:33 | -3.24631 | 102.40378 | 34071 ft | 460 kts | 308° |
| 2026-05-08 11:33 | -3.20825 | 102.35229 | 34060 ft | 460 kts | 308° |
| 2026-05-08 11:34 | -3.17006 | 102.30062 | 34048 ft | 460 kts | 308° |
| 2026-05-08 11:34 | -3.13188 | 102.24899 | 34038 ft | 461 kts | 308° |
| 2026-05-08 11:35 | -3.09370 | 102.19737 | 34010 ft | 462 kts | 308° |
| 2026-05-08 11:35 | -3.05568 | 102.14595 | 33984 ft | 461 kts | 309° |
| 2026-05-08 11:36 | -3.01745 | 102.09427 | 33961 ft | 461 kts | 309° |
| 2026-05-08 11:36 | -2.97932 | 102.04273 | 33953 ft | 461 kts | 309° |
| 2026-05-08 11:37 | -2.94121 | 101.99122 | 33961 ft | 461 kts | 309° |
| 2026-05-08 11:37 | -2.90320 | 101.93986 | 33980 ft | 461 kts | 309° |
| 2026-05-08 11:38 | -2.86500 | 101.88824 | 33985 ft | 462 kts | 309° |
| 2026-05-08 11:38 | -2.82685 | 101.83667 | 33982 ft | 460 kts | 309° |
| 2026-05-08 11:39 | -2.78884 | 101.78532 | 33973 ft | 460 kts | 309° |
| 2026-05-08 11:39 | -2.75051 | 101.73355 | 33956 ft | 460 kts | 309° |
| 2026-05-08 11:40 | -2.71246 | 101.68215 | 33947 ft | 460 kts | 309° |
| 2026-05-08 11:40 | -2.67682 | 101.63405 | 33942 ft | 461 kts | 309° |
| 2026-05-08 11:41 | -2.63925 | 101.58334 | 33932 ft | 460 kts | 309° |
| 2026-05-08 11:41 | -2.60774 | 101.54085 | 33929 ft | 460 kts | 309° |
| 2026-05-08 11:43 | -2.57598 | 101.49809 | 33921 ft | 460 kts | 309° |
| 2026-05-08 11:43 | -2.53774 | 101.44659 | 33919 ft | 460 kts | 309° |
| 2026-05-08 11:44 | -2.49961 | 101.39527 | 33912 ft | 460 kts | 309° |
| 2026-05-08 11:44 | -2.46154 | 101.34404 | 33905 ft | 460 kts | 309° |
| 2026-05-08 11:45 | -2.42347 | 101.29284 | 33895 ft | 461 kts | 309° |
| 2026-05-08 11:45 | -2.38524 | 101.24143 | 33885 ft | 460 kts | 309° |
| 2026-05-08 11:46 | -2.34717 | 101.19017 | 33883 ft | 459 kts | 309° |
| 2026-05-08 11:46 | -2.30914 | 101.13874 | 33882 ft | 460 kts | 309° |
| 2026-05-08 11:47 | -2.27107 | 101.08724 | 33877 ft | 458 kts | 309° |
| 2026-05-08 11:47 | -2.23325 | 101.03612 | 33876 ft | 458 kts | 309° |
| 2026-05-08 11:48 | -2.19497 | 100.98439 | 33671 ft | 462 kts | 309° |
| 2026-05-08 11:48 | -2.17588 | 100.95859 | 33381 ft | 461 kts | 308° |
| 2026-05-08 11:48 | -2.15688 | 100.93292 | 33092 ft | 460 kts | 308° |
| 2026-05-08 11:48 | -2.13781 | 100.90715 | 32804 ft | 461 kts | 308° |
| 2026-05-08 11:49 | -2.11894 | 100.88168 | 32520 ft | 463 kts | 309° |
| 2026-05-08 11:49 | -2.09963 | 100.85558 | 32077 ft | 461 kts | 309° |
| 2026-05-08 11:49 | -2.08080 | 100.83013 | 31574 ft | 457 kts | 308° |
| 2026-05-08 11:49 | -2.06182 | 100.80447 | 30997 ft | 454 kts | 308° |
| 2026-05-08 11:50 | -2.04330 | 100.77946 | 30412 ft | 452 kts | 308° |
| 2026-05-08 11:50 | -2.02472 | 100.75435 | 29819 ft | 450 kts | 308° |
| 2026-05-08 11:50 | -2.00607 | 100.72916 | 29221 ft | 447 kts | 308° |
| 2026-05-08 11:50 | -1.98770 | 100.70435 | 28629 ft | 445 kts | 308° |
| 2026-05-08 11:51 | -1.96931 | 100.67952 | 28049 ft | 443 kts | 308° |
| 2026-05-08 11:51 | -1.95111 | 100.65494 | 27466 ft | 441 kts | 308° |
| 2026-05-08 11:51 | -1.93295 | 100.63042 | 26876 ft | 439 kts | 308° |
| 2026-05-08 11:51 | -1.91468 | 100.60583 | 26279 ft | 437 kts | 309° |
| 2026-05-08 11:52 | -1.89593 | 100.58211 | 25680 ft | 435 kts | 312° |
| 2026-05-08 11:52 | -1.87472 | 100.56049 | 25087 ft | 430 kts | 321° |
| 2026-05-08 11:52 | -1.85144 | 100.54226 | 24502 ft | 427 kts | 326° |
| 2026-05-08 11:52 | -1.82707 | 100.52568 | 23915 ft | 424 kts | 329° |
| 2026-05-08 11:53 | -1.80210 | 100.50973 | 23328 ft | 422 kts | 330° |
| 2026-05-08 11:53 | -1.77743 | 100.49426 | 22745 ft | 417 kts | 330° |
| 2026-05-08 11:53 | -1.75300 | 100.47892 | 22171 ft | 409 kts | 330° |
| 2026-05-08 11:53 | -1.72938 | 100.46398 | 21624 ft | 401 kts | 330° |
| 2026-05-08 11:54 | -1.70606 | 100.44910 | 21069 ft | 394 kts | 329° |
| 2026-05-08 11:54 | -1.68291 | 100.43421 | 20512 ft | 387 kts | 329° |
| 2026-05-08 11:54 | -1.66065 | 100.41981 | 19971 ft | 381 kts | 329° |
| 2026-05-08 11:54 | -1.63849 | 100.40541 | 19429 ft | 374 kts | 329° |
| 2026-05-08 11:55 | -1.61671 | 100.39123 | 18890 ft | 368 kts | 329° |
| 2026-05-08 11:55 | -1.59560 | 100.37746 | 18371 ft | 363 kts | 329° |
| 2026-05-08 11:55 | -1.57447 | 100.36365 | 17847 ft | 357 kts | 329° |
| 2026-05-08 11:55 | -1.55385 | 100.35018 | 17343 ft | 360 kts | 329° |
| 2026-05-08 11:56 | -1.53251 | 100.33625 | 16826 ft | 364 kts | 329° |
| 2026-05-08 11:56 | -1.51145 | 100.32250 | 16301 ft | 364 kts | 328° |
| 2026-05-08 11:56 | -1.49019 | 100.30862 | 15775 ft | 363 kts | 328° |
| 2026-05-08 11:56 | -1.46913 | 100.29485 | 15246 ft | 362 kts | 328° |
| 2026-05-08 11:57 | -1.44803 | 100.28105 | 14715 ft | 360 kts | 328° |
| 2026-05-08 11:57 | -1.42715 | 100.26740 | 14192 ft | 359 kts | 328° |
| 2026-05-08 11:57 | -1.40630 | 100.25377 | 13680 ft | 357 kts | 328° |
| 2026-05-08 11:57 | -1.38578 | 100.24036 | 13166 ft | 355 kts | 328° |
| 2026-05-08 11:58 | -1.36510 | 100.22684 | 12861 ft | 345 kts | 328° |
| 2026-05-08 11:58 | -1.34536 | 100.21393 | 12749 ft | 332 kts | 327° |
| 2026-05-08 11:58 | -1.32628 | 100.20144 | 12267 ft | 331 kts | 328° |
| 2026-05-08 11:59 | -1.28747 | 100.17607 | 11200 ft | 331 kts | 328° |
| 2026-05-08 11:59 | -1.26836 | 100.16361 | 10601 ft | 328 kts | 328° |
| 2026-05-08 11:59 | -1.24948 | 100.15131 | 10268 ft | 316 kts | 327° |
| 2026-05-08 11:59 | -1.23157 | 100.13957 | 10155 ft | 299 kts | 327° |
| 2026-05-08 12:00 | -1.21431 | 100.12826 | 9835 ft | 291 kts | 327° |
| 2026-05-08 12:00 | -1.19740 | 100.11772 | 9425 ft | 287 kts | 331° |
| 2026-05-08 12:00 | -1.17971 | 100.10852 | 9083 ft | 283 kts | 334° |
| 2026-05-08 12:00 | -1.16191 | 100.10018 | 8724 ft | 283 kts | 335° |
| 2026-05-08 12:01 | -1.14378 | 100.09200 | 8381 ft | 282 kts | 338° |
| 2026-05-08 12:01 | -1.12513 | 100.08640 | 8065 ft | 279 kts | 352° |
| 2026-05-08 12:01 | -1.10598 | 100.08794 | 7726 ft | 275 kts | 21° |
| 2026-05-08 12:01 | -1.08993 | 100.09780 | 7394 ft | 271 kts | 45° |
| 2026-05-08 12:02 | -1.07807 | 100.11249 | 7037 ft | 270 kts | 59° |
| 2026-05-08 12:02 | -1.06917 | 100.12893 | 6670 ft | 270 kts | 64° |
| 2026-05-08 12:02 | -1.06083 | 100.14566 | 6323 ft | 269 kts | 64° |
| 2026-05-08 12:02 | -1.05239 | 100.16228 | 5988 ft | 269 kts | 64° |
| 2026-05-08 12:03 | -1.04393 | 100.17889 | 5657 ft | 268 kts | 64° |
| 2026-05-08 12:03 | -1.03547 | 100.19554 | 5313 ft | 267 kts | 64° |
| 2026-05-08 12:03 | -1.02721 | 100.21194 | 5050 ft | 264 kts | 64° |
| 2026-05-08 12:03 | -1.01933 | 100.22855 | 4806 ft | 263 kts | 69° |
| 2026-05-08 12:04 | -1.01420 | 100.24591 | 4620 ft | 256 kts | 76° |
| 2026-05-08 12:04 | -1.01038 | 100.26293 | 4527 ft | 244 kts | 78° |
| 2026-05-08 12:04 | -1.00694 | 100.27908 | 4399 ft | 235 kts | 78° |
| 2026-05-08 12:04 | -1.00362 | 100.29484 | 4169 ft | 231 kts | 78° |
| 2026-05-08 12:05 | -1.00037 | 100.31046 | 3937 ft | 227 kts | 78° |
| 2026-05-08 12:05 | -0.99725 | 100.32576 | 3727 ft | 222 kts | 78° |
| 2026-05-08 12:05 | -0.99406 | 100.34071 | 3563 ft | 213 kts | 75° |
| 2026-05-08 12:05 | -0.98799 | 100.35323 | 3529 ft | 194 kts | 43° |
| 2026-05-08 12:06 | -0.97656 | 100.35923 | 3535 ft | 182 kts | 13° |
| 2026-05-08 12:06 | -0.96396 | 100.36049 | 3536 ft | 181 kts | 357° |
| 2026-05-08 12:06 | -0.95147 | 100.35807 | 3372 ft | 185 kts | 335° |
| 2026-05-08 12:06 | -0.94039 | 100.35143 | 3066 ft | 186 kts | 330° |
| 2026-05-08 12:07 | -0.92921 | 100.34570 | 2833 ft | 173 kts | 336° |
| 2026-05-08 12:07 | -0.91852 | 100.34101 | 2576 ft | 163 kts | 336° |
| 2026-05-08 12:07 | -0.90861 | 100.33652 | 2398 ft | 151 kts | 336° |
| 2026-05-08 12:07 | -0.89929 | 100.33224 | 2175 ft | 146 kts | 336° |
| 2026-05-08 12:08 | -0.88990 | 100.32798 | 1989 ft | 146 kts | 336° |
| 2026-05-08 12:08 | -0.88066 | 100.32375 | 1794 ft | 145 kts | 336° |
| 2026-05-08 12:08 | -0.87140 | 100.31950 | 1598 ft | 144 kts | 336° |
| 2026-05-08 12:08 | -0.86216 | 100.31527 | 1407 ft | 147 kts | 336° |
| 2026-05-08 12:09 | -0.85286 | 100.31102 | 1215 ft | 147 kts | 335° |
| 2026-05-08 12:09 | -0.84349 | 100.30670 | 1018 ft | 148 kts | 335° |
| 2026-05-08 12:09 | -0.83414 | 100.30246 | 825 ft | 148 kts | 336° |
| 2026-05-08 12:09 | -0.82466 | 100.29810 | 626 ft | 148 kts | 335° |
| 2026-05-08 12:10 | -0.81529 | 100.29387 | 430 ft | 148 kts | 336° |
| 2026-05-08 12:10 | -0.80588 | 100.28960 | 247 ft | 148 kts | 335° |
| 2026-05-08 12:10 | -0.79629 | 100.28520 | 50 ft | 149 kts | 336° |
| 2026-05-08 12:10 | -0.78825 | 100.28149 | 50 ft | 91 kts | 334° |
| 2026-05-08 12:11 | -0.78462 | 100.27980 | 55 ft | 36 kts | 335° |
| 2026-05-08 12:11 | -0.78299 | 100.27904 | 58 ft | 13 kts | 335° |
| 2026-05-08 12:11 | -0.78247 | 100.27881 | 58 ft | 4 kts | 334° |
| 2026-05-08 12:11 | -0.78238 | 100.27877 | 58 ft | 1 kts | 334° |
| 2026-05-08 12:12 | -0.78229 | 100.27869 | 58 ft | 2 kts | 311° |
| 2026-05-08 12:12 | -0.78190 | 100.27847 | 58 ft | 2 kts | 64° |
| 2026-05-08 12:12 | -0.78223 | 100.27874 | 58 ft | 11 kts | 158° |
| 2026-05-08 12:12 | -0.78320 | 100.27914 | 57 ft | 15 kts | 156° |
| 2026-05-08 12:13 | -0.78423 | 100.27961 | 56 ft | 17 kts | 155° |
| 2026-05-08 12:13 | -0.78535 | 100.28014 | 56 ft | 16 kts | 154° |
| 2026-05-08 12:13 | -0.78577 | 100.28084 | 56 ft | 11 kts | 69° |
| 2026-05-08 12:13 | -0.78543 | 100.28153 | 57 ft | 10 kts | 64° |
| 2026-05-08 12:14 | -0.78512 | 100.28218 | 56 ft | 10 kts | 65° |
| 2026-05-08 12:14 | -0.78479 | 100.28297 | 55 ft | 13 kts | 79° |
| 2026-05-08 12:14 | -0.78528 | 100.28365 | 54 ft | 13 kts | 155° |
| 2026-05-08 12:14 | -0.78613 | 100.28403 | 52 ft | 12 kts | 154° |
| 2026-05-08 12:15 | -0.78651 | 100.28436 | 51 ft | 5 kts | 81° |
| 2026-05-08 12:15 | -0.78634 | 100.28480 | 52 ft | 6 kts | 64° |
| 2026-05-08 12:15 | -0.78626 | 100.28496 | 52 ft | 0 kts | 64° |